sensor_id;sensor_type;location;lat;lon;timestamp;P1;durP1;ratioP1;P2;durP2;ratioP2
38425;SDS011;24210;51.460;6.148;2022-12-17T00:00:57;61.78;;;34.55;;
38425;SDS011;24210;51.460;6.148;2022-12-17T00:03:41;61.95;;;32.75;;
38425;SDS011;24210;51.460;6.148;2022-12-17T00:06:25;56.78;;;32.83;;
38425;SDS011;24210;51.460;6.148;2022-12-17T00:09:09;60.50;;;34.53;;
38425;SDS011;24210;51.460;6.148;2022-12-17T00:11:53;59.28;;;32.90;;
38425;SDS011;24210;51.460;6.148;2022-12-17T00:14:36;56.72;;;32.53;;
38425;SDS011;24210;51.460;6.148;2022-12-17T00:17:20;60.78;;;34.17;;
38425;SDS011;24210;51.460;6.148;2022-12-17T00:20:04;58.42;;;34.78;;
38425;SDS011;24210;51.460;6.148;2022-12-17T00:22:56;59.08;;;31.95;;
38425;SDS011;24210;51.460;6.148;2022-12-17T00:25:40;60.40;;;33.80;;
38425;SDS011;24210;51.460;6.148;2022-12-17T00:28:24;58.35;;;32.80;;
38425;SDS011;24210;51.460;6.148;2022-12-17T00:31:08;58.08;;;34.03;;
38425;SDS011;24210;51.460;6.148;2022-12-17T00:33:52;53.25;;;30.98;;
38425;SDS011;24210;51.460;6.148;2022-12-17T00:36:36;58.97;;;32.75;;
38425;SDS011;24210;51.460;6.148;2022-12-17T00:39:19;55.25;;;31.52;;
38425;SDS011;24210;51.460;6.148;2022-12-17T00:42:03;49.20;;;29.42;;
38425;SDS011;24210;51.460;6.148;2022-12-17T00:44:47;59.90;;;33.00;;
38425;SDS011;24210;51.460;6.148;2022-12-17T00:47:31;57.58;;;31.92;;
38425;SDS011;24210;51.460;6.148;2022-12-17T00:50:15;53.58;;;31.73;;
38425;SDS011;24210;51.460;6.148;2022-12-17T00:52:59;60.95;;;34.00;;
38425;SDS011;24210;51.460;6.148;2022-12-17T00:55:43;56.03;;;31.75;;
38425;SDS011;24210;51.460;6.148;2022-12-17T00:58:27;57.10;;;34.20;;
38425;SDS011;24210;51.460;6.148;2022-12-17T01:01:11;53.95;;;32.17;;
38425;SDS011;24210;51.460;6.148;2022-12-17T01:03:55;57.67;;;32.38;;
38425;SDS011;24210;51.460;6.148;2022-12-17T01:06:39;60.03;;;35.08;;
38425;SDS011;24210;51.460;6.148;2022-12-17T01:09:23;58.10;;;34.28;;
38425;SDS011;24210;51.460;6.148;2022-12-17T01:12:07;60.13;;;33.70;;
38425;SDS011;24210;51.460;6.148;2022-12-17T01:14:51;56.08;;;34.05;;
38425;SDS011;24210;51.460;6.148;2022-12-17T01:17:35;56.80;;;32.92;;
38425;SDS011;24210;51.460;6.148;2022-12-17T01:20:18;59.70;;;34.45;;
38425;SDS011;24210;51.460;6.148;2022-12-17T01:23:05;58.53;;;32.38;;
38425;SDS011;24210;51.460;6.148;2022-12-17T01:25:53;57.53;;;33.28;;
38425;SDS011;24210;51.460;6.148;2022-12-17T01:28:36;57.13;;;34.40;;
38425;SDS011;24210;51.460;6.148;2022-12-17T01:31:20;57.63;;;32.50;;
38425;SDS011;24210;51.460;6.148;2022-12-17T01:34:04;53.85;;;34.58;;
38425;SDS011;24210;51.460;6.148;2022-12-17T01:36:48;63.33;;;36.10;;
38425;SDS011;24210;51.460;6.148;2022-12-17T01:39:32;56.50;;;34.38;;
38425;SDS011;24210;51.460;6.148;2022-12-17T01:42:16;59.45;;;33.40;;
38425;SDS011;24210;51.460;6.148;2022-12-17T01:45:00;60.67;;;32.90;;
38425;SDS011;24210;51.460;6.148;2022-12-17T01:48:17;56.55;;;33.15;;
38425;SDS011;24210;51.460;6.148;2022-12-17T01:50:54;59.90;;;33.58;;
38425;SDS011;24210;51.460;6.148;2022-12-17T01:53:40;61.35;;;34.45;;
38425;SDS011;24210;51.460;6.148;2022-12-17T01:56:25;59.10;;;33.47;;
38425;SDS011;24210;51.460;6.148;2022-12-17T01:59:09;60.13;;;34.40;;
38425;SDS011;24210;51.460;6.148;2022-12-17T02:01:53;62.80;;;36.90;;
38425;SDS011;24210;51.460;6.148;2022-12-17T02:04:37;56.33;;;35.63;;
38425;SDS011;24210;51.460;6.148;2022-12-17T02:10:17;60.38;;;35.20;;
38425;SDS011;24210;51.460;6.148;2022-12-17T02:13:08;60.80;;;33.35;;
38425;SDS011;24210;51.460;6.148;2022-12-17T02:15:58;64.63;;;37.38;;
38425;SDS011;24210;51.460;6.148;2022-12-17T02:18:49;63.72;;;35.75;;
38425;SDS011;24210;51.460;6.148;2022-12-17T02:21:33;61.95;;;37.78;;
38425;SDS011;24210;51.460;6.148;2022-12-17T02:24:33;65.95;;;39.75;;
38425;SDS011;24210;51.460;6.148;2022-12-17T02:27:20;69.40;;;38.30;;
38425;SDS011;24210;51.460;6.148;2022-12-17T02:30:05;64.93;;;37.45;;
38425;SDS011;24210;51.460;6.148;2022-12-17T02:32:49;67.75;;;38.17;;
38425;SDS011;24210;51.460;6.148;2022-12-17T02:35:35;68.60;;;40.78;;
38425;SDS011;24210;51.460;6.148;2022-12-17T02:38:21;71.07;;;40.65;;
38425;SDS011;24210;51.460;6.148;2022-12-17T02:41:05;75.03;;;42.83;;
38425;SDS011;24210;51.460;6.148;2022-12-17T02:43:50;74.68;;;42.78;;
38425;SDS011;24210;51.460;6.148;2022-12-17T02:46:35;73.82;;;43.58;;
38425;SDS011;24210;51.460;6.148;2022-12-17T02:49:19;76.30;;;44.10;;
38425;SDS011;24210;51.460;6.148;2022-12-17T02:52:03;83.28;;;44.05;;
38425;SDS011;24210;51.460;6.148;2022-12-17T02:54:47;76.55;;;43.03;;
38425;SDS011;24210;51.460;6.148;2022-12-17T02:57:31;73.50;;;41.95;;
38425;SDS011;24210;51.460;6.148;2022-12-17T03:00:15;78.78;;;44.08;;
38425;SDS011;24210;51.460;6.148;2022-12-17T03:02:59;76.88;;;44.00;;
38425;SDS011;24210;51.460;6.148;2022-12-17T03:05:42;74.50;;;42.50;;
38425;SDS011;24210;51.460;6.148;2022-12-17T03:08:26;73.80;;;43.00;;
38425;SDS011;24210;51.460;6.148;2022-12-17T03:11:18;73.97;;;42.92;;
38425;SDS011;24210;51.460;6.148;2022-12-17T03:14:01;76.75;;;43.33;;
38425;SDS011;24210;51.460;6.148;2022-12-17T03:16:45;72.93;;;41.47;;
38425;SDS011;24210;51.460;6.148;2022-12-17T03:19:29;74.60;;;41.67;;
38425;SDS011;24210;51.460;6.148;2022-12-17T03:22:27;72.07;;;39.25;;
38425;SDS011;24210;51.460;6.148;2022-12-17T03:25:24;73.15;;;40.38;;
38425;SDS011;24210;51.460;6.148;2022-12-17T03:28:09;71.18;;;40.28;;
38425;SDS011;24210;51.460;6.148;2022-12-17T03:30:53;63.67;;;37.33;;
38425;SDS011;24210;51.460;6.148;2022-12-17T03:33:37;72.47;;;40.47;;
38425;SDS011;24210;51.460;6.148;2022-12-17T03:36:21;69.75;;;41.95;;
38425;SDS011;24210;51.460;6.148;2022-12-17T03:39:05;73.63;;;42.47;;
38425;SDS011;24210;51.460;6.148;2022-12-17T03:41:49;68.63;;;39.67;;
38425;SDS011;24210;51.460;6.148;2022-12-17T03:44:33;68.80;;;39.85;;
38425;SDS011;24210;51.460;6.148;2022-12-17T03:47:17;71.43;;;40.78;;
38425;SDS011;24210;51.460;6.148;2022-12-17T03:50:01;70.95;;;40.78;;
38425;SDS011;24210;51.460;6.148;2022-12-17T03:52:44;68.40;;;38.25;;
38425;SDS011;24210;51.460;6.148;2022-12-17T03:55:28;70.72;;;44.22;;
38425;SDS011;24210;51.460;6.148;2022-12-17T03:58:12;64.47;;;36.70;;
38425;SDS011;24210;51.460;6.148;2022-12-17T04:00:56;70.20;;;39.90;;
38425;SDS011;24210;51.460;6.148;2022-12-17T04:03:40;69.68;;;40.72;;
38425;SDS011;24210;51.460;6.148;2022-12-17T04:06:24;76.78;;;41.83;;
38425;SDS011;24210;51.460;6.148;2022-12-17T04:09:08;71.88;;;43.67;;
38425;SDS011;24210;51.460;6.148;2022-12-17T04:11:52;65.88;;;37.60;;
38425;SDS011;24210;51.460;6.148;2022-12-17T04:14:36;72.13;;;40.80;;
38425;SDS011;24210;51.460;6.148;2022-12-17T04:17:20;74.28;;;40.05;;
38425;SDS011;24210;51.460;6.148;2022-12-17T04:20:04;72.85;;;41.42;;
38425;SDS011;24210;51.460;6.148;2022-12-17T04:22:47;74.22;;;43.28;;
38425;SDS011;24210;51.460;6.148;2022-12-17T04:25:31;75.32;;;42.53;;
38425;SDS011;24210;51.460;6.148;2022-12-17T04:28:15;80.03;;;43.20;;
38425;SDS011;24210;51.460;6.148;2022-12-17T04:30:59;78.18;;;41.55;;
38425;SDS011;24210;51.460;6.148;2022-12-17T04:33:43;71.97;;;40.92;;
38425;SDS011;24210;51.460;6.148;2022-12-17T04:36:27;71.20;;;39.67;;
38425;SDS011;24210;51.460;6.148;2022-12-17T04:39:11;76.88;;;42.92;;
38425;SDS011;24210;51.460;6.148;2022-12-17T04:41:55;71.50;;;38.72;;
38425;SDS011;24210;51.460;6.148;2022-12-17T04:44:39;75.57;;;40.63;;
38425;SDS011;24210;51.460;6.148;2022-12-17T04:47:23;70.50;;;38.42;;
38425;SDS011;24210;51.460;6.148;2022-12-17T04:50:07;70.80;;;39.60;;
38425;SDS011;24210;51.460;6.148;2022-12-17T04:52:58;74.30;;;39.45;;
38425;SDS011;24210;51.460;6.148;2022-12-17T04:55:42;77.85;;;46.00;;
38425;SDS011;24210;51.460;6.148;2022-12-17T04:58:25;72.80;;;39.58;;
38425;SDS011;24210;51.460;6.148;2022-12-17T05:01:09;80.28;;;41.42;;
38425;SDS011;24210;51.460;6.148;2022-12-17T05:03:53;73.13;;;40.42;;
38425;SDS011;24210;51.460;6.148;2022-12-17T05:06:37;82.28;;;43.90;;
38425;SDS011;24210;51.460;6.148;2022-12-17T05:09:21;73.45;;;39.58;;
38425;SDS011;24210;51.460;6.148;2022-12-17T05:12:05;77.10;;;43.22;;
38425;SDS011;24210;51.460;6.148;2022-12-17T05:14:49;79.55;;;40.47;;
38425;SDS011;24210;51.460;6.148;2022-12-17T05:17:33;75.85;;;41.45;;
38425;SDS011;24210;51.460;6.148;2022-12-17T05:20:17;75.28;;;39.42;;
38425;SDS011;24210;51.460;6.148;2022-12-17T05:23:05;76.85;;;38.95;;
38425;SDS011;24210;51.460;6.148;2022-12-17T05:25:55;75.70;;;39.95;;
38425;SDS011;24210;51.460;6.148;2022-12-17T05:28:41;76.70;;;41.28;;
38425;SDS011;24210;51.460;6.148;2022-12-17T05:31:25;72.97;;;39.40;;
38425;SDS011;24210;51.460;6.148;2022-12-17T05:34:09;81.03;;;43.35;;
38425;SDS011;24210;51.460;6.148;2022-12-17T05:36:53;77.40;;;40.40;;
38425;SDS011;24210;51.460;6.148;2022-12-17T05:39:36;72.05;;;37.60;;
38425;SDS011;24210;51.460;6.148;2022-12-17T05:42:20;79.05;;;43.85;;
38425;SDS011;24210;51.460;6.148;2022-12-17T05:45:04;77.43;;;38.25;;
38425;SDS011;24210;51.460;6.148;2022-12-17T05:47:48;78.13;;;38.67;;
38425;SDS011;24210;51.460;6.148;2022-12-17T05:50:32;81.68;;;36.42;;
38425;SDS011;24210;51.460;6.148;2022-12-17T05:53:16;75.57;;;38.85;;
38425;SDS011;24210;51.460;6.148;2022-12-17T05:56:00;77.53;;;39.90;;
38425;SDS011;24210;51.460;6.148;2022-12-17T05:58:44;83.05;;;40.53;;
38425;SDS011;24210;51.460;6.148;2022-12-17T06:01:28;76.03;;;36.42;;
38425;SDS011;24210;51.460;6.148;2022-12-17T06:04:12;82.60;;;40.38;;
38425;SDS011;24210;51.460;6.148;2022-12-17T06:06:55;75.40;;;36.38;;
38425;SDS011;24210;51.460;6.148;2022-12-17T06:09:39;76.05;;;35.70;;
38425;SDS011;24210;51.460;6.148;2022-12-17T06:12:23;78.72;;;40.13;;
38425;SDS011;24210;51.460;6.148;2022-12-17T06:15:07;76.68;;;37.60;;
38425;SDS011;24210;51.460;6.148;2022-12-17T06:17:55;67.18;;;34.53;;
38425;SDS011;24210;51.460;6.148;2022-12-17T06:20:39;72.28;;;35.97;;
38425;SDS011;24210;51.460;6.148;2022-12-17T06:23:23;79.13;;;35.33;;
38425;SDS011;24210;51.460;6.148;2022-12-17T06:26:07;71.40;;;37.90;;
38425;SDS011;24210;51.460;6.148;2022-12-17T06:28:50;73.28;;;37.95;;
38425;SDS011;24210;51.460;6.148;2022-12-17T06:31:34;75.82;;;36.75;;
38425;SDS011;24210;51.460;6.148;2022-12-17T06:34:18;70.40;;;36.17;;
38425;SDS011;24210;51.460;6.148;2022-12-17T06:37:02;73.15;;;37.40;;
38425;SDS011;24210;51.460;6.148;2022-12-17T06:39:46;73.00;;;38.15;;
38425;SDS011;24210;51.460;6.148;2022-12-17T06:42:30;75.30;;;37.00;;
38425;SDS011;24210;51.460;6.148;2022-12-17T06:45:14;76.22;;;38.80;;
38425;SDS011;24210;51.460;6.148;2022-12-17T06:48:00;71.93;;;36.53;;
38425;SDS011;24210;51.460;6.148;2022-12-17T06:50:43;71.45;;;37.97;;
38425;SDS011;24210;51.460;6.148;2022-12-17T06:53:27;79.78;;;38.92;;
38425;SDS011;24210;51.460;6.148;2022-12-17T06:56:11;75.43;;;37.13;;
38425;SDS011;24210;51.460;6.148;2022-12-17T06:58:55;88.93;;;39.10;;
38425;SDS011;24210;51.460;6.148;2022-12-17T07:01:39;74.63;;;36.83;;
38425;SDS011;24210;51.460;6.148;2022-12-17T07:04:23;75.97;;;37.28;;
38425;SDS011;24210;51.460;6.148;2022-12-17T07:07:07;79.07;;;38.70;;
38425;SDS011;24210;51.460;6.148;2022-12-17T07:09:51;74.75;;;38.00;;
38425;SDS011;24210;51.460;6.148;2022-12-17T07:12:35;80.30;;;37.53;;
38425;SDS011;24210;51.460;6.148;2022-12-17T07:15:19;80.75;;;38.72;;
38425;SDS011;24210;51.460;6.148;2022-12-17T07:18:03;70.43;;;36.45;;
38425;SDS011;24210;51.460;6.148;2022-12-17T07:20:47;78.18;;;35.08;;
38425;SDS011;24210;51.460;6.148;2022-12-17T07:23:31;75.88;;;37.13;;
38425;SDS011;24210;51.460;6.148;2022-12-17T07:26:15;76.40;;;38.60;;
38425;SDS011;24210;51.460;6.148;2022-12-17T07:28:58;75.82;;;37.45;;
38425;SDS011;24210;51.460;6.148;2022-12-17T07:31:42;74.45;;;37.10;;
38425;SDS011;24210;51.460;6.148;2022-12-17T07:34:26;79.50;;;38.03;;
38425;SDS011;24210;51.460;6.148;2022-12-17T07:37:10;76.50;;;39.35;;
38425;SDS011;24210;51.460;6.148;2022-12-17T07:39:54;70.43;;;35.20;;
38425;SDS011;24210;51.460;6.148;2022-12-17T07:42:38;71.68;;;37.63;;
38425;SDS011;24210;51.460;6.148;2022-12-17T07:45:22;73.55;;;38.97;;
38425;SDS011;24210;51.460;6.148;2022-12-17T07:48:06;68.25;;;38.92;;
38425;SDS011;24210;51.460;6.148;2022-12-17T07:50:50;70.07;;;36.13;;
38425;SDS011;24210;51.460;6.148;2022-12-17T07:53:34;73.10;;;40.35;;
38425;SDS011;24210;51.460;6.148;2022-12-17T07:56:18;66.90;;;34.42;;
38425;SDS011;24210;51.460;6.148;2022-12-17T07:59:21;76.03;;;43.85;;
38425;SDS011;24210;51.460;6.148;2022-12-17T08:02:05;63.70;;;30.27;;
38425;SDS011;24210;51.460;6.148;2022-12-17T08:04:49;57.28;;;30.38;;
38425;SDS011;24210;51.460;6.148;2022-12-17T08:07:33;57.95;;;33.00;;
38425;SDS011;24210;51.460;6.148;2022-12-17T08:10:16;55.47;;;30.98;;
38425;SDS011;24210;51.460;6.148;2022-12-17T08:13:02;60.85;;;33.53;;
38425;SDS011;24210;51.460;6.148;2022-12-17T08:15:46;58.87;;;30.87;;
38425;SDS011;24210;51.460;6.148;2022-12-17T08:18:31;63.53;;;32.00;;
38425;SDS011;24210;51.460;6.148;2022-12-17T08:21:14;65.70;;;35.42;;
38425;SDS011;24210;51.460;6.148;2022-12-17T08:23:58;57.67;;;30.52;;
38425;SDS011;24210;51.460;6.148;2022-12-17T08:27:02;57.25;;;30.73;;
38425;SDS011;24210;51.460;6.148;2022-12-17T08:29:46;62.05;;;32.60;;
38425;SDS011;24210;51.460;6.148;2022-12-17T08:32:30;69.35;;;35.80;;
38425;SDS011;24210;51.460;6.148;2022-12-17T08:35:13;62.60;;;32.38;;
38425;SDS011;24210;51.460;6.148;2022-12-17T08:38:01;64.82;;;35.45;;
38425;SDS011;24210;51.460;6.148;2022-12-17T08:40:45;67.30;;;36.55;;
38425;SDS011;24210;51.460;6.148;2022-12-17T08:43:29;72.60;;;39.33;;
38425;SDS011;24210;51.460;6.148;2022-12-17T08:46:13;74.75;;;36.83;;
38425;SDS011;24210;51.460;6.148;2022-12-17T08:48:57;65.93;;;35.72;;
38425;SDS011;24210;51.460;6.148;2022-12-17T08:51:41;72.05;;;41.38;;
38425;SDS011;24210;51.460;6.148;2022-12-17T08:54:25;65.60;;;36.97;;
38425;SDS011;24210;51.460;6.148;2022-12-17T08:57:09;66.03;;;34.90;;
38425;SDS011;24210;51.460;6.148;2022-12-17T08:59:53;63.20;;;35.75;;
38425;SDS011;24210;51.460;6.148;2022-12-17T09:02:37;65.50;;;33.63;;
38425;SDS011;24210;51.460;6.148;2022-12-17T09:05:21;54.55;;;33.13;;
38425;SDS011;24210;51.460;6.148;2022-12-17T09:08:05;55.35;;;34.83;;
38425;SDS011;24210;51.460;6.148;2022-12-17T09:10:49;60.60;;;33.20;;
38425;SDS011;24210;51.460;6.148;2022-12-17T09:13:33;55.42;;;32.92;;
38425;SDS011;24210;51.460;6.148;2022-12-17T09:16:17;52.92;;;30.10;;
38425;SDS011;24210;51.460;6.148;2022-12-17T09:19:01;57.13;;;33.45;;
38425;SDS011;24210;51.460;6.148;2022-12-17T09:21:45;49.75;;;29.30;;
38425;SDS011;24210;51.460;6.148;2022-12-17T09:24:28;55.55;;;30.05;;
38425;SDS011;24210;51.460;6.148;2022-12-17T09:27:13;52.95;;;30.98;;
38425;SDS011;24210;51.460;6.148;2022-12-17T09:29:57;53.58;;;31.20;;
38425;SDS011;24210;51.460;6.148;2022-12-17T09:32:41;47.45;;;30.17;;
38425;SDS011;24210;51.460;6.148;2022-12-17T09:35:25;48.40;;;31.08;;
38425;SDS011;24210;51.460;6.148;2022-12-17T09:38:12;53.13;;;32.60;;
38425;SDS011;24210;51.460;6.148;2022-12-17T09:40:57;53.85;;;30.58;;
38425;SDS011;24210;51.460;6.148;2022-12-17T09:43:44;47.45;;;28.33;;
38425;SDS011;24210;51.460;6.148;2022-12-17T09:46:38;48.13;;;26.15;;
38425;SDS011;24210;51.460;6.148;2022-12-17T09:49:25;45.67;;;26.15;;
38425;SDS011;24210;51.460;6.148;2022-12-17T09:52:15;48.75;;;25.92;;
38425;SDS011;24210;51.460;6.148;2022-12-17T09:55:00;46.95;;;28.40;;
38425;SDS011;24210;51.460;6.148;2022-12-17T09:57:45;59.60;;;36.95;;
38425;SDS011;24210;51.460;6.148;2022-12-17T10:00:29;51.47;;;30.17;;
38425;SDS011;24210;51.460;6.148;2022-12-17T10:03:14;43.90;;;24.80;;
38425;SDS011;24210;51.460;6.148;2022-12-17T10:06:00;42.47;;;25.63;;
38425;SDS011;24210;51.460;6.148;2022-12-17T10:08:54;48.40;;;27.75;;
38425;SDS011;24210;51.460;6.148;2022-12-17T10:11:40;50.95;;;28.67;;
38425;SDS011;24210;51.460;6.148;2022-12-17T10:14:24;46.42;;;27.50;;
38425;SDS011;24210;51.460;6.148;2022-12-17T10:17:13;46.13;;;25.13;;
38425;SDS011;24210;51.460;6.148;2022-12-17T10:19:58;43.10;;;24.52;;
38425;SDS011;24210;51.460;6.148;2022-12-17T10:22:43;40.88;;;25.42;;
38425;SDS011;24210;51.460;6.148;2022-12-17T10:25:27;43.22;;;25.38;;
38425;SDS011;24210;51.460;6.148;2022-12-17T10:28:12;43.55;;;26.70;;
38425;SDS011;24210;51.460;6.148;2022-12-17T10:30:57;49.77;;;26.20;;
38425;SDS011;24210;51.460;6.148;2022-12-17T10:33:41;45.83;;;26.70;;
38425;SDS011;24210;51.460;6.148;2022-12-17T10:36:25;50.97;;;28.08;;
38425;SDS011;24210;51.460;6.148;2022-12-17T10:39:17;44.25;;;28.92;;
38425;SDS011;24210;51.460;6.148;2022-12-17T10:42:02;48.10;;;27.58;;
38425;SDS011;24210;51.460;6.148;2022-12-17T10:44:46;36.60;;;25.08;;
38425;SDS011;24210;51.460;6.148;2022-12-17T10:47:32;38.40;;;23.02;;
38425;SDS011;24210;51.460;6.148;2022-12-17T10:50:16;47.90;;;27.63;;
38425;SDS011;24210;51.460;6.148;2022-12-17T10:53:00;42.58;;;25.38;;
38425;SDS011;24210;51.460;6.148;2022-12-17T10:55:49;45.33;;;27.10;;
38425;SDS011;24210;51.460;6.148;2022-12-17T10:58:34;46.25;;;28.65;;
38425;SDS011;24210;51.460;6.148;2022-12-17T11:01:20;49.70;;;31.33;;
38425;SDS011;24210;51.460;6.148;2022-12-17T11:07:24;49.10;;;29.05;;
38425;SDS011;24210;51.460;6.148;2022-12-17T11:10:23;52.40;;;27.15;;
38425;SDS011;24210;51.460;6.148;2022-12-17T11:13:10;54.28;;;29.70;;
38425;SDS011;24210;51.460;6.148;2022-12-17T11:15:56;55.88;;;28.88;;
38425;SDS011;24210;51.460;6.148;2022-12-17T11:21:32;58.47;;;31.10;;
38425;SDS011;24210;51.460;6.148;2022-12-17T11:24:20;57.65;;;30.40;;
38425;SDS011;24210;51.460;6.148;2022-12-17T11:27:06;52.80;;;29.52;;
38425;SDS011;24210;51.460;6.148;2022-12-17T11:29:50;59.28;;;31.55;;
38425;SDS011;24210;51.460;6.148;2022-12-17T11:35:27;57.00;;;30.58;;
38425;SDS011;24210;51.460;6.148;2022-12-17T11:44:08;59.03;;;31.58;;
38425;SDS011;24210;51.460;6.148;2022-12-17T11:46:59;53.58;;;29.73;;
38425;SDS011;24210;51.460;6.148;2022-12-17T11:52:52;50.28;;;30.33;;
38425;SDS011;24210;51.460;6.148;2022-12-17T11:59:04;54.35;;;31.13;;
38425;SDS011;24210;51.460;6.148;2022-12-17T12:04:57;46.42;;;25.75;;
38425;SDS011;24210;51.460;6.148;2022-12-17T12:13:53;51.75;;;29.05;;
38425;SDS011;24210;51.460;6.148;2022-12-17T12:16:46;48.85;;;27.55;;
38425;SDS011;24210;51.460;6.148;2022-12-17T12:19:48;54.88;;;28.73;;
38425;SDS011;24210;51.460;6.148;2022-12-17T12:34:22;52.83;;;31.20;;
38425;SDS011;24210;51.460;6.148;2022-12-17T12:37:06;52.35;;;27.90;;
38425;SDS011;24210;51.460;6.148;2022-12-17T12:39:59;47.70;;;29.30;;
38425;SDS011;24210;51.460;6.148;2022-12-17T12:42:45;47.70;;;29.23;;
38425;SDS011;24210;51.460;6.148;2022-12-17T12:45:35;43.42;;;27.45;;
38425;SDS011;24210;51.460;6.148;2022-12-17T12:48:29;56.05;;;29.23;;
38425;SDS011;24210;51.460;6.148;2022-12-17T12:54:01;49.33;;;29.30;;
38425;SDS011;24210;51.460;6.148;2022-12-17T12:57:01;47.00;;;28.02;;
38425;SDS011;24210;51.460;6.148;2022-12-17T12:59:47;48.38;;;28.75;;
38425;SDS011;24210;51.460;6.148;2022-12-17T13:02:38;41.15;;;27.08;;
38425;SDS011;24210;51.460;6.148;2022-12-17T13:05:24;48.03;;;29.20;;
38425;SDS011;24210;51.460;6.148;2022-12-17T13:08:03;50.53;;;28.48;;
38425;SDS011;24210;51.460;6.148;2022-12-17T13:10:30;42.63;;;28.02;;
38425;SDS011;24210;51.460;6.148;2022-12-17T13:12:55;48.50;;;27.05;;
38425;SDS011;24210;51.460;6.148;2022-12-17T13:15:29;42.08;;;26.42;;
38425;SDS011;24210;51.460;6.148;2022-12-17T13:18:17;42.75;;;26.42;;
38425;SDS011;24210;51.460;6.148;2022-12-17T13:20:54;45.22;;;26.33;;
38425;SDS011;24210;51.460;6.148;2022-12-17T13:28:38;42.33;;;24.52;;
38425;SDS011;24210;51.460;6.148;2022-12-17T13:31:05;40.87;;;24.30;;
38425;SDS011;24210;51.460;6.148;2022-12-17T13:33:45;40.38;;;22.95;;
38425;SDS011;24210;51.460;6.148;2022-12-17T13:36:16;41.03;;;24.17;;
38425;SDS011;24210;51.460;6.148;2022-12-17T13:41:18;43.35;;;24.67;;
38425;SDS011;24210;51.460;6.148;2022-12-17T13:43:44;45.90;;;24.20;;
38425;SDS011;24210;51.460;6.148;2022-12-17T13:46:24;44.20;;;30.10;;
38425;SDS011;24210;51.460;6.148;2022-12-17T13:48:53;45.10;;;24.38;;
38425;SDS011;24210;51.460;6.148;2022-12-17T13:51:19;47.22;;;26.20;;
38425;SDS011;24210;51.460;6.148;2022-12-17T13:56:40;44.97;;;23.77;;
38425;SDS011;24210;51.460;6.148;2022-12-17T13:59:05;38.93;;;23.73;;
38425;SDS011;24210;51.460;6.148;2022-12-17T14:01:30;42.40;;;26.37;;
38425;SDS011;24210;51.460;6.148;2022-12-17T14:03:59;48.00;;;28.07;;
38425;SDS011;24210;51.460;6.148;2022-12-17T14:06:28;46.85;;;24.48;;
38425;SDS011;24210;51.460;6.148;2022-12-17T14:08:56;81.30;;;67.95;;
38425;SDS011;24210;51.460;6.148;2022-12-17T14:11:22;52.00;;;33.47;;
38425;SDS011;24210;51.460;6.148;2022-12-17T14:14:49;46.53;;;32.05;;
38425;SDS011;24210;51.460;6.148;2022-12-17T14:16:54;50.83;;;34.53;;
38425;SDS011;24210;51.460;6.148;2022-12-17T14:19:19;47.10;;;25.60;;
38425;SDS011;24210;51.460;6.148;2022-12-17T14:21:45;52.20;;;27.53;;
38425;SDS011;24210;51.460;6.148;2022-12-17T14:24:11;45.17;;;23.20;;
38425;SDS011;24210;51.460;6.148;2022-12-17T14:26:46;43.03;;;24.58;;
38425;SDS011;24210;51.460;6.148;2022-12-17T14:29:12;46.33;;;22.75;;
38425;SDS011;24210;51.460;6.148;2022-12-17T14:31:38;47.58;;;23.88;;
38425;SDS011;24210;51.460;6.148;2022-12-17T14:34:07;39.43;;;24.87;;
38425;SDS011;24210;51.460;6.148;2022-12-17T14:36:34;47.28;;;26.48;;
38425;SDS011;24210;51.460;6.148;2022-12-17T14:39:01;45.50;;;23.73;;
38425;SDS011;24210;51.460;6.148;2022-12-17T14:41:26;63.75;;;37.80;;
38425;SDS011;24210;51.460;6.148;2022-12-17T14:44:27;52.42;;;24.27;;
38425;SDS011;24210;51.460;6.148;2022-12-17T14:47:04;47.00;;;28.80;;
38425;SDS011;24210;51.460;6.148;2022-12-17T14:49:30;47.05;;;25.88;;
38425;SDS011;24210;51.460;6.148;2022-12-17T14:51:55;65.23;;;34.53;;
38425;SDS011;24210;51.460;6.148;2022-12-17T14:56:50;47.83;;;25.88;;
38425;SDS011;24210;51.460;6.148;2022-12-17T14:59:22;64.13;;;35.63;;
38425;SDS011;24210;51.460;6.148;2022-12-17T15:01:48;61.45;;;34.25;;
38425;SDS011;24210;51.460;6.148;2022-12-17T15:04:14;48.00;;;24.87;;
38425;SDS011;24210;51.460;6.148;2022-12-17T15:06:40;45.42;;;24.90;;
38425;SDS011;24210;51.460;6.148;2022-12-17T15:09:05;49.13;;;26.73;;
38425;SDS011;24210;51.460;6.148;2022-12-17T15:11:31;45.40;;;26.43;;
38425;SDS011;24210;51.460;6.148;2022-12-17T15:13:56;43.20;;;25.97;;
38425;SDS011;24210;51.460;6.148;2022-12-17T15:16:21;50.70;;;29.33;;
38425;SDS011;24210;51.460;6.148;2022-12-17T15:18:46;41.77;;;26.13;;
38425;SDS011;24210;51.460;6.148;2022-12-17T15:21:11;46.37;;;28.23;;
38425;SDS011;24210;51.460;6.148;2022-12-17T15:23:38;49.80;;;24.97;;
38425;SDS011;24210;51.460;6.148;2022-12-17T15:26:04;49.42;;;25.23;;
38425;SDS011;24210;51.460;6.148;2022-12-17T15:28:30;47.43;;;26.87;;
38425;SDS011;24210;51.460;6.148;2022-12-17T15:30:55;45.03;;;27.47;;
38425;SDS011;24210;51.460;6.148;2022-12-17T15:33:20;49.27;;;26.10;;
38425;SDS011;24210;51.460;6.148;2022-12-17T15:35:45;46.07;;;28.47;;
38425;SDS011;24210;51.460;6.148;2022-12-17T15:38:11;48.67;;;28.37;;
38425;SDS011;24210;51.460;6.148;2022-12-17T15:40:36;49.83;;;29.70;;
38425;SDS011;24210;51.460;6.148;2022-12-17T15:43:02;46.33;;;28.77;;
38425;SDS011;24210;51.460;6.148;2022-12-17T15:45:37;48.70;;;28.08;;
38425;SDS011;24210;51.460;6.148;2022-12-17T15:48:03;50.22;;;30.40;;
38425;SDS011;24210;51.460;6.148;2022-12-17T15:50:28;47.37;;;27.13;;
38425;SDS011;24210;51.460;6.148;2022-12-17T15:52:53;52.93;;;28.57;;
38425;SDS011;24210;51.460;6.148;2022-12-17T15:55:19;46.30;;;26.87;;
38425;SDS011;24210;51.460;6.148;2022-12-17T15:57:44;54.40;;;27.43;;
38425;SDS011;24210;51.460;6.148;2022-12-17T16:00:09;48.30;;;29.10;;
38425;SDS011;24210;51.460;6.148;2022-12-17T16:02:35;54.10;;;28.43;;
38425;SDS011;24210;51.460;6.148;2022-12-17T16:05:00;57.57;;;32.80;;
38425;SDS011;24210;51.460;6.148;2022-12-17T16:07:25;48.60;;;27.33;;
38425;SDS011;24210;51.460;6.148;2022-12-17T16:09:51;53.07;;;29.80;;
38425;SDS011;24210;51.460;6.148;2022-12-17T16:12:16;54.37;;;29.20;;
38425;SDS011;24210;51.460;6.148;2022-12-17T16:14:41;54.67;;;29.27;;
38425;SDS011;24210;51.460;6.148;2022-12-17T16:17:06;55.23;;;29.43;;
38425;SDS011;24210;51.460;6.148;2022-12-17T16:19:31;62.40;;;31.00;;
38425;SDS011;24210;51.460;6.148;2022-12-17T16:21:57;52.23;;;30.00;;
38425;SDS011;24210;51.460;6.148;2022-12-17T16:24:22;50.97;;;29.77;;
38425;SDS011;24210;51.460;6.148;2022-12-17T16:26:47;61.57;;;31.73;;
38425;SDS011;24210;51.460;6.148;2022-12-17T16:29:12;52.00;;;29.50;;
38425;SDS011;24210;51.460;6.148;2022-12-17T16:31:38;59.33;;;28.73;;
38425;SDS011;24210;51.460;6.148;2022-12-17T16:34:06;62.93;;;31.37;;
38425;SDS011;24210;51.460;6.148;2022-12-17T16:36:31;56.55;;;31.15;;
38425;SDS011;24210;51.460;6.148;2022-12-17T16:38:57;58.30;;;31.80;;
38425;SDS011;24210;51.460;6.148;2022-12-17T16:41:22;62.43;;;32.73;;
38425;SDS011;24210;51.460;6.148;2022-12-17T16:43:48;58.63;;;31.00;;